»·PEaware :: GSA250 KJAC-KRKS

GSA250 :: KJAC-KRKS

FLIGHT INFORMATION

Flight Status: Arrived
Operator:
Global Sim Alliance
More flights by this operator :: More flights under this callsign
Pilot: Andrew J. (13363)
Aircraft: EMBRAER BANDEIRANTE
(E110)
More flights by this aircraft type
Origin: KJAC Jackson Hole
United States
Destination: KRKS Rock Springs-Sweetwater
United States
More flights between these airports :: More routes between these airports
Route: +GEYSR5 NALSI V298 DNW V330 JAC V328 OCS
File this flight plan on PilotEdge
Remarks: Global Is the Callsign..
Altitude:
(Current/Filed)
13,500ft
Speed:
(Current/Filed)
280kts
Departed: 28-Mar-17 10:09 AM
Arrived: 28-Mar-17 11:11 AM
Distance/Time
Traveled:
142nm/1:02
Distance/Time
To Go:
Arrived

Flight Plot

Page will automatically refresh every two minutes.

Flight plan parsing failed; only flown route is shown


Map Options




Map Legend


Flown Route
Filed Route
Departure Airport
Arrival Airport
Navaid (VOR, NDB)
Fix

Horizontal Profiles

Position Reports

Time Latitude Longitude Heading Altitude Ground
Speed
28-Mar-17 09:46 43.602237 -110.737637 107 6456ft 0kts
28-Mar-17 09:47 43.602237 -110.737637 107 6456ft 0kts
28-Mar-17 09:48 43.602237 -110.737637 107 6456ft 0kts
28-Mar-17 09:49 43.602237 -110.737637 107 6456ft 0kts
28-Mar-17 09:50 43.602237 -110.737637 107 6456ft 0kts
28-Mar-17 09:51 43.602237 -110.737637 107 6456ft 0kts
28-Mar-17 09:52 43.602237 -110.737637 107 6456ft 0kts
28-Mar-17 09:53 43.602237 -110.737637 107 6456ft 0kts
28-Mar-17 09:54 43.602237 -110.737637 107 6456ft 0kts
28-Mar-17 09:55 43.602237 -110.737637 107 6456ft 0kts
28-Mar-17 09:56 43.602237 -110.737637 107 6456ft 0kts
28-Mar-17 09:57 43.602237 -110.737637 107 6456ft 0kts
28-Mar-17 09:58 43.602237 -110.737637 107 6456ft 0kts
28-Mar-17 09:59 43.602237 -110.737637 107 6456ft 0kts
28-Mar-17 10:00 43.602237 -110.737637 107 6456ft 0kts
28-Mar-17 10:01 43.602237 -110.737637 107 6456ft 0kts
28-Mar-17 10:02 43.602237 -110.737637 107 6456ft 0kts
28-Mar-17 10:03 43.602237 -110.737637 107 6456ft 0kts
28-Mar-17 10:04 43.602237 -110.737637 107 6456ft 0kts
28-Mar-17 10:05 43.602237 -110.737637 107 6456ft 0kts
28-Mar-17 10:06 43.602237 -110.737637 107 6456ft 0kts
28-Mar-17 10:07 43.601691 -110.739001 194 6456ft 17kts
28-Mar-17 10:08 43.599058 -110.740356 254 6456ft 0kts
28-Mar-17 10:09 43.599695 -110.741485 17 6456ft 0kts
28-Mar-17 10:10 43.611329 -110.735997 17 6574ft 99kts
28-Mar-17 10:11 43.642104 -110.721486 22 7228ft 135kts
28-Mar-17 10:12 43.679653 -110.700500 19 8408ft 141kts
28-Mar-17 10:13 43.716639 -110.680714 19 9588ft 146kts
28-Mar-17 10:14 43.753600 -110.657736 47 10619ft 156kts
28-Mar-17 10:15 43.783565 -110.616512 36 11730ft 151kts
28-Mar-17 10:16 43.818159 -110.581226 34 12529ft 163kts
28-Mar-17 10:17 43.854499 -110.543515 64 13238ft 175kts
28-Mar-17 10:18 43.849008 -110.476436 100 14189ft 173kts
28-Mar-17 10:19 43.839435 -110.410048 100 14779ft 192kts
28-Mar-17 10:20 43.818221 -110.342564 165 14766ft 219kts
28-Mar-17 10:21 43.783029 -110.400642 248 14769ft 231kts
28-Mar-17 10:22 43.751270 -110.479442 236 14765ft 238kts
28-Mar-17 10:23 43.713168 -110.555067 234 14764ft 241kts
28-Mar-17 10:24 43.673848 -110.629986 236 14785ft 243kts
28-Mar-17 10:25 43.635017 -110.704296 235 14790ft 245kts
28-Mar-17 10:26 43.572634 -110.700667 156 14791ft 248kts
28-Mar-17 10:27 43.517119 -110.667905 154 14790ft 248kts
28-Mar-17 10:28 43.454009 -110.629803 154 14790ft 248kts
28-Mar-17 10:29 43.390763 -110.591585 154 14790ft 249kts
28-Mar-17 10:30 43.327317 -110.553320 154 14791ft 249kts
28-Mar-17 10:31 43.263987 -110.515210 154 14791ft 249kts
28-Mar-17 10:32 43.200890 -110.477327 154 14791ft 249kts
28-Mar-17 10:33 43.137619 -110.439278 156 14819ft 250kts
28-Mar-17 10:34 43.073694 -110.401208 156 14819ft 251kts
28-Mar-17 10:35 43.010658 -110.363664 155 14762ft 245kts
28-Mar-17 10:36 42.949446 -110.326961 158 14738ft 251kts
28-Mar-17 10:37 42.886495 -110.289837 158 14733ft 255kts
28-Mar-17 10:38 42.821445 -110.251314 158 14735ft 255kts
28-Mar-17 10:39 42.756276 -110.213147 155 14735ft 258kts
28-Mar-17 10:40 42.690837 -110.173955 158 14736ft 258kts
28-Mar-17 10:41 42.625208 -110.135585 158 14733ft 257kts
28-Mar-17 10:42 42.563516 -110.091565 138 14976ft 249kts
28-Mar-17 10:43 42.509803 -110.030326 138 14980ft 256kts
28-Mar-17 10:44 42.455346 -109.968484 140 14979ft 258kts
28-Mar-17 10:45 42.400030 -109.906794 140 14979ft 258kts
28-Mar-17 10:46 42.344809 -109.845287 137 14982ft 259kts
28-Mar-17 10:47 42.289139 -109.782952 138 14982ft 260kts
28-Mar-17 10:48 42.233750 -109.721311 138 14982ft 260kts
28-Mar-17 10:49 42.178033 -109.659334 137 14982ft 259kts
28-Mar-17 10:50 42.122979 -109.598253 137 14982ft 259kts
28-Mar-17 10:51 42.069662 -109.539261 137 14979ft 259kts
28-Mar-17 10:52 42.014063 -109.477899 137 14982ft 259kts
28-Mar-17 10:53 41.959072 -109.417386 140 15006ft 252kts
28-Mar-17 10:54 41.905709 -109.359021 140 14797ft 245kts
28-Mar-17 10:55 41.854841 -109.303241 141 14736ft 246kts
28-Mar-17 10:56 41.801778 -109.245200 141 14680ft 246kts
28-Mar-17 10:57 41.748766 -109.187342 141 14628ft 246kts
28-Mar-17 10:58 41.695647 -109.129496 141 14581ft 246kts
28-Mar-17 10:59 41.642581 -109.071809 141 13719ft 245kts
28-Mar-17 11:00 41.595245 -109.008206 113 12272ft 244kts
28-Mar-17 11:01 41.575046 -108.922803 105 10832ft 238kts
28-Mar-17 11:02 41.556907 -108.840030 105 9635ft 210kts
28-Mar-17 11:03 41.542685 -108.764377 98 9620ft 212kts
28-Mar-17 11:04 41.532944 -108.686311 97 9621ft 214kts
28-Mar-17 11:05 41.564317 -108.650826 317 9622ft 184kts
28-Mar-17 11:06 41.561865 -108.711171 251 9616ft 166kts
28-Mar-17 11:07 41.545404 -108.770236 255 9620ft 179kts
28-Mar-17 11:08 41.554175 -108.837617 283 9430ft 195kts
28-Mar-17 11:09 41.566644 -108.908321 284 8838ft 183kts
28-Mar-17 11:10 41.577015 -108.965997 284 7968ft 143kts
28-Mar-17 11:11 41.585747 -109.014936 284 6927ft 132kts
28-Mar-17 11:12 41.590672 -109.042194 290 6763ft 0kts
28-Mar-17 11:13 41.590672 -109.042194 290 6763ft 0kts
28-Mar-17 11:14 41.590672 -109.042194 290 6763ft 0kts

Navigation Log

Ident Type
Flight plan parsing failed, navigation log unavailable